メインページ
METAR-TAF:

METAR-TAF

空港 :

アルマトイ, カザフスタン

アルマトイ国際空港

緯度: 43-14N, 経度: 076-56E, 海抜: 847m

現時点の気象観測

当レポートは37分前の23:00(UTC)に作成
の風 4kt
気温 9°C
湿度 66%
気圧 1022 hPa
視程10km以上
高度3700ftの千切れ雲あり
高度10000ftの曇り

METAR: UAAA 232300Z 36002MPS 9999 BKN037 OVC100 09/03 Q1022 R23R/CLRD65 NOSIG

時間: 05:37 (23:37 UTC)

予報

当レポートは6時間37分前の17:00(UTC)に作成
予報は23日の 18時(UTC)から 24日の 18時(UTC)まで有効
西の風 10kt
視程10km以上
高度2000ftの千切れ雲あり, 積乱雲.
高度10000ftの曇り
23日の 18時(UTC)から 23日の 24時(UTC)まで一時的に
北西の風 12kt
視程: 3000m
高度1000ftの千切れ雲あり, 積乱雲.
高度10000ftの曇り
弱いにわか雨, 靄
24日の 00時(UTC)から 24日の 07時(UTC)まで一時的に
高度500ftの千切れ雲あり
高度1000ftの曇り, 積乱雲.
弱いにわか雨
24日の 07時(UTC)から 24日の 08時(UTC)まで徐々に
北西の風 12kt
高度3000ftの千切れ雲あり, 積乱雲.
高度10000ftの千切れ雲あり
24日の 13時(UTC)から 24日の 18時(UTC)まで一時的に
南西の風 10kt
視程: 3000m
靄, 煙

TAF: UAAA 231700Z 2318/2418 26005MPS 9999 BKN020CB OVC100 TX14/2409Z TN04/2401Z TEMPO 2318/2324 32006MPS 3000 -SHRA BR BKN010CB OVC100 TEMPO 2400/2407 -SHRA BKN005 OVC010CB BECMG 2407/2408 32006MPS BKN030CB BKN100 TEMPO 2413/2418 22005MPS 3000 BR FU

4,000以上の空港の気象観測と天気予報(METAR報とTAF報)

利用可能な観測所は地図上に黄色い丸と赤い丸で示す。

丸の上にカーソルを重ねると観測所名を参照できる。

次にクリックすると気象観測と天気予報を参照できる。

マップの切り替え:黒色「×」印の緑ボタンをクリックして拡大、「-」印の緑ボタンをクリックして縮小、緑色の三角印をクリックして隣りの地図に切り替え


METAR-TAF: